Time;durP1;ratioP1;P1;durP2;ratioP2;P2;SDS_P1;SDS_P2;PMS_P1;PMS_P2;Temp;Humidity;BMP_temperature;BMP_pressure;BME280_temperature;BME280_humidity;BME280_pressure;Samples;Min_cycle;Max_cycle;Signal;HPM_P1;HPM_P2
2022/07/07 00:00:53;;;;;;;4.20;0.95;;;15.90;91.60;;;;;;6210837;28;20063;-83
2022/07/07 00:03:55;;;;;;;2.15;1.08;;;15.90;91.50;;;;;;6211509;28;20050;-83
2022/07/07 00:06:59;;;;;;;1.50;0.50;;;15.90;91.50;;;;;;6210688;28;20070;-82
2022/07/07 00:10:01;;;;;;;1.17;0.98;;;16.00;91.40;;;;;;6210870;28;20054;-82
2022/07/07 00:13:04;;;;;;;3.35;0.90;;;16.10;91.30;;;;;;6208332;28;20042;-83
2022/07/07 00:16:06;;;;;;;1.27;0.77;;;16.20;91.40;;;;;;6209158;28;20051;-83
2022/07/07 00:19:08;;;;;;;2.40;0.73;;;16.20;91.40;;;;;;6209948;28;20046;-82
2022/07/07 00:22:09;;;;;;;1.75;0.70;;;16.20;91.40;;;;;;6210813;28;20050;-81
2022/07/07 00:25:11;;;;;;;2.28;0.80;;;16.20;91.40;;;;;;6208946;28;20061;-83
2022/07/07 00:28:15;;;;;;;1.58;0.90;;;16.20;91.30;;;;;;6208305;28;20504;-82
2022/07/07 00:31:17;;;;;;;0.90;0.68;;;16.20;91.40;;;;;;6209138;28;20445;-82
2022/07/07 00:34:19;;;;;;;1.40;0.82;;;16.20;91.30;;;;;;6209779;28;20084;-82
2022/07/07 00:37:21;;;;;;;1.45;1.02;;;16.20;91.40;;;;;;6206374;28;20052;-82
2022/07/07 00:40:23;;;;;;;2.50;0.70;;;16.20;91.50;;;;;;6206674;28;20047;-82
2022/07/07 00:43:26;;;;;;;1.92;0.82;;;16.30;91.50;;;;;;6208213;28;20052;-82
2022/07/07 00:46:36;;;;;;;2.63;0.73;;;16.30;91.40;;;;;;6204678;28;20057;-83
2022/07/07 00:49:40;;;;;;;2.47;1.15;;;16.40;91.30;;;;;;6207771;28;20185;-82
2022/07/07 00:52:42;;;;;;;2.63;0.77;;;16.40;91.40;;;;;;6206565;28;20151;-82
2022/07/07 00:55:44;;;;;;;1.30;0.70;;;16.40;91.40;;;;;;6206359;28;20052;-83
2022/07/07 00:58:47;;;;;;;2.95;0.93;;;16.30;91.40;;;;;;6204058;28;20060;-82
2022/07/07 01:01:49;;;;;;;1.40;0.85;;;16.30;91.30;;;;;;6205715;28;20054;-81
2022/07/07 01:04:51;;;;;;;12.30;1.33;;;16.30;91.20;;;;;;6204680;28;20450;-80
2022/07/07 01:07:54;;;;;;;3.70;0.95;;;16.30;91.10;;;;;;6204766;28;20046;-83
2022/07/07 01:10:56;;;;;;;1.67;0.73;;;16.40;91.10;;;;;;6204768;28;20427;-82
2022/07/07 01:13:59;;;;;;;2.65;1.05;;;16.30;91.30;;;;;;6206008;28;20524;-82
2022/07/07 01:17:01;;;;;;;5.82;0.82;;;16.30;91.50;;;;;;6206216;28;20060;-82
2022/07/07 01:20:05;;;;;;;1.83;0.85;;;16.30;91.60;;;;;;6205478;28;20053;-82
2022/07/07 01:23:09;;;;;;;2.53;0.80;;;16.10;91.80;;;;;;6206044;28;20042;-82
2022/07/07 01:26:10;;;;;;;3.40;0.88;;;16.10;91.90;;;;;;6206463;28;20050;-82
2022/07/07 01:29:12;;;;;;;1.45;0.85;;;15.90;92.00;;;;;;6204302;28;20054;-81
2022/07/07 01:32:14;;;;;;;2.35;0.57;;;15.90;92.30;;;;;;6205642;28;20134;-82
2022/07/07 01:35:17;;;;;;;3.30;0.80;;;15.70;92.40;;;;;;6206140;28;20046;-82
2022/07/07 01:38:20;;;;;;;2.05;1.00;;;15.70;92.60;;;;;;6207166;28;20051;-81
2022/07/07 01:41:22;;;;;;;1.02;0.90;;;15.60;92.90;;;;;;6205489;28;20056;-82
2022/07/07 01:44:24;;;;;;;4.10;1.23;;;15.50;93.00;;;;;;6205483;28;20046;-83
2022/07/07 01:47:26;;;;;;;2.50;2.30;;;15.40;93.10;;;;;;6205955;28;20046;-83
2022/07/07 01:50:28;;;;;;;1.30;0.70;;;15.40;93.30;;;;;;6205918;28;20057;-83
2022/07/07 01:53:31;;;;;;;4.03;1.00;;;15.30;93.40;;;;;;6206079;28;20054;-83
2022/07/07 01:56:33;;;;;;;1.38;0.80;;;15.20;93.60;;;;;;6207655;28;20052;-83
2022/07/07 01:59:36;;;;;;;2.65;0.90;;;15.20;93.70;;;;;;6207106;28;20066;-84
2022/07/07 02:02:38;;;;;;;1.77;0.88;;;15.10;93.80;;;;;;6206712;28;20057;-81
2022/07/07 02:05:40;;;;;;;4.78;1.20;;;15.10;94.00;;;;;;6204378;28;20058;-80
2022/07/07 02:08:43;;;;;;;1.52;1.00;;;15.00;94.10;;;;;;6205583;28;20373;-83
2022/07/07 02:11:44;;;;;;;1.90;0.90;;;14.90;94.40;;;;;;6205201;28;20043;-83
2022/07/07 02:14:46;;;;;;;1.88;0.68;;;14.80;94.70;;;;;;6204675;28;20413;-82
2022/07/07 02:17:48;;;;;;;1.92;0.98;;;14.70;94.80;;;;;;6204222;28;20046;-83
2022/07/07 02:20:50;;;;;;;1.10;0.88;;;14.60;95.00;;;;;;6205412;28;20484;-82
2022/07/07 02:23:54;;;;;;;4.28;0.90;;;14.60;95.40;;;;;;6206839;28;20050;-83
2022/07/07 02:26:55;;;;;;;1.73;1.10;;;14.50;95.30;;;;;;6205134;28;20049;-83
2022/07/07 02:29:57;;;;;;;3.65;1.30;;;14.50;95.60;;;;;;6204901;28;20094;-83
2022/07/07 02:32:59;;;;;;;2.15;1.48;;;14.40;95.70;;;;;;6203204;28;20046;-81
2022/07/07 02:36:01;;;;;;;3.60;1.00;;;14.40;95.70;;;;;;6204120;28;20050;-83
2022/07/07 02:39:04;;;;;;;2.00;1.17;;;14.30;95.80;;;;;;6203710;28;20072;-84
2022/07/07 02:42:06;;;;;;;4.30;1.30;;;14.30;95.90;;;;;;6205553;28;20050;-83
2022/07/07 02:45:08;;;;;;;1.92;0.98;;;14.20;96.10;;;;;;6204676;28;20060;-83
2022/07/07 02:48:11;;;;;;;2.30;1.10;;;14.20;96.30;;;;;;6204123;28;20397;-82
2022/07/07 02:51:13;;;;;;;6.88;1.23;;;14.20;96.20;;;;;;6204473;28;20042;-83
2022/07/07 02:54:17;;;;;;;2.85;1.25;;;14.20;96.10;;;;;;6205677;28;20050;-83
2022/07/07 02:57:18;;;;;;;1.02;0.68;;;14.20;96.20;;;;;;6206695;28;20062;-83
2022/07/07 03:00:20;;;;;;;7.45;1.00;;;14.10;96.20;;;;;;6206774;28;20050;-83
2022/07/07 03:03:22;;;;;;;5.43;1.90;;;14.20;96.20;;;;;;6204129;28;20046;-82
2022/07/07 03:06:24;;;;;;;2.40;1.15;;;14.20;96.30;;;;;;6208260;28;20060;-83
2022/07/07 03:09:27;;;;;;;3.92;0.98;;;14.30;96.20;;;;;;6207849;28;20110;-84
2022/07/07 03:12:29;;;;;;;5.60;1.15;;;14.40;96.10;;;;;;6210477;28;20046;-83
2022/07/07 03:15:31;;;;;;;1.55;1.10;;;14.40;96.10;;;;;;6212389;28;20056;-82
2022/07/07 03:18:32;;;;;;;1.92;0.73;;;14.50;96.10;;;;;;6211215;28;20054;-82
2022/07/07 03:21:34;;;;;;;1.65;1.25;;;14.50;95.90;;;;;;6215085;28;20046;-83
2022/07/07 03:24:37;;;;;;;4.20;1.15;;;14.60;95.90;;;;;;6218176;28;20114;-81
2022/07/07 03:27:40;;;;;;;3.05;2.00;;;14.60;95.80;;;;;;6222687;28;20478;-81
2022/07/07 03:30:41;;;;;;;1.88;1.15;;;14.70;95.70;;;;;;6209322;28;20411;-83
2022/07/07 03:33:43;;;;;;;4.85;1.30;;;14.70;95.50;;;;;;6210208;28;20054;-82
2022/07/07 03:36:45;;;;;;;3.17;1.05;;;14.80;95.40;;;;;;6207261;28;20500;-82
2022/07/07 03:39:48;;;;;;;3.70;0.95;;;14.90;95.20;;;;;;6206810;28;20401;-81
2022/07/07 03:42:50;;;;;;;2.45;1.13;;;15.00;94.90;;;;;;6209551;28;20050;-82
2022/07/07 03:45:52;;;;;;;8.10;1.80;;;15.10;94.70;;;;;;6209654;28;20162;-83
2022/07/07 03:48:54;;;;;;;2.80;1.48;;;15.10;94.50;;;;;;6208313;28;20423;-82
2022/07/07 03:51:55;;;;;;;2.35;1.38;;;15.10;94.40;;;;;;6209313;28;20042;-83
2022/07/07 03:54:58;;;;;;;3.88;1.42;;;15.20;94.30;;;;;;6208172;28;20053;-84
2022/07/07 03:58:00;;;;;;;2.25;0.63;;;15.20;94.20;;;;;;6208138;28;20050;-83
2022/07/07 04:01:02;;;;;;;4.75;1.05;;;15.30;94.00;;;;;;6206468;28;20066;-84
2022/07/07 04:04:05;;;;;;;4.40;1.20;;;15.30;93.80;;;;;;6207383;28;20053;-82
2022/07/07 04:07:07;;;;;;;4.10;0.98;;;15.40;93.70;;;;;;6207951;28;20537;-83
2022/07/07 04:10:10;;;;;;;2.55;1.10;;;15.40;93.40;;;;;;6208245;28;20050;-83
2022/07/07 04:13:12;;;;;;;4.35;1.38;;;15.50;93.20;;;;;;6206069;28;20064;-83
2022/07/07 04:16:14;;;;;;;3.63;1.20;;;15.60;93.00;;;;;;6207723;28;20046;-83
2022/07/07 04:19:16;;;;;;;5.00;1.00;;;15.80;92.70;;;;;;6207492;28;20038;-83
2022/07/07 04:22:17;;;;;;;4.53;2.10;;;15.90;92.50;;;;;;6207249;28;20055;-83
2022/07/07 04:25:20;;;;;;;3.88;1.48;;;16.30;91.90;;;;;;6207387;28;20624;-83
2022/07/07 04:28:22;;;;;;;3.80;1.35;;;16.40;91.40;;;;;;6207559;28;20043;-84
2022/07/07 04:31:24;;;;;;;3.88;1.05;;;16.50;91.30;;;;;;6207224;28;20046;-83
2022/07/07 04:34:26;;;;;;;2.05;0.82;;;16.60;91.20;;;;;;6207606;28;20050;-83
2022/07/07 04:37:27;;;;;;;5.88;1.25;;;16.60;91.00;;;;;;6206372;28;20053;-84
2022/07/07 04:40:30;;;;;;;4.15;0.90;;;16.90;90.90;;;;;;6207536;28;20049;-82
2022/07/07 04:43:32;;;;;;;5.10;1.30;;;17.40;90.20;;;;;;6211916;28;20065;-82
2022/07/07 04:46:34;;;;;;;3.20;0.90;;;18.10;87.30;;;;;;6210603;28;20054;-82
2022/07/07 04:49:36;;;;;;;2.33;1.05;;;18.20;86.10;;;;;;6208563;28;20504;-83
2022/07/07 04:52:38;;;;;;;1.85;0.70;;;18.10;86.10;;;;;;6208749;28;20050;-84
2022/07/07 04:55:41;;;;;;;2.97;0.70;;;18.10;86.10;;;;;;6208066;28;20046;-84
2022/07/07 04:58:42;;;;;;;2.38;1.10;;;18.00;86.10;;;;;;6208466;28;20061;-82
2022/07/07 05:01:44;;;;;;;4.10;1.15;;;17.90;86.70;;;;;;6206904;28;20496;-84
2022/07/07 05:04:46;;;;;;;1.75;0.77;;;17.80;86.30;;;;;;6206179;28;20513;-83
2022/07/07 05:07:48;;;;;;;3.90;0.95;;;17.90;86.50;;;;;;6206991;28;20053;-84
2022/07/07 05:10:51;;;;;;;1.08;0.73;;;18.00;86.10;;;;;;6207034;28;20050;-83
2022/07/07 05:13:52;;;;;;;3.50;1.17;;;18.00;86.10;;;;;;6234631;23;20522;-82
2022/07/07 05:16:55;;;;;;;4.20;0.60;;;18.10;86.00;;;;;;6230073;28;20054;-82
2022/07/07 05:19:57;;;;;;;5.00;0.75;;;18.10;85.50;;;;;;6230540;28;20503;-82
2022/07/07 05:22:58;;;;;;;4.70;0.85;;;18.20;85.70;;;;;;6230106;28;20048;-82
2022/07/07 05:26:02;;;;;;;2.25;0.80;;;18.30;85.10;;;;;;6231169;28;20057;-81
2022/07/07 05:29:03;;;;;;;7.97;1.55;;;18.40;84.60;;;;;;6230371;28;20046;-82
2022/07/07 05:32:06;;;;;;;1.70;0.85;;;18.40;84.50;;;;;;6229659;28;20069;-82
2022/07/07 05:35:09;;;;;;;2.00;0.75;;;18.60;84.00;;;;;;6229488;28;20048;-81
2022/07/07 05:38:11;;;;;;;2.67;1.58;;;18.70;83.40;;;;;;6231378;28;20071;-81
2022/07/07 05:41:19;;;;;;;4.35;0.80;;;18.90;82.80;;;;;;6227371;28;20096;-82
2022/07/07 05:44:21;;;;;;;1.35;0.77;;;19.00;81.70;;;;;;6209870;28;20058;-82
2022/07/07 05:47:22;;;;;;;3.05;0.63;;;19.30;80.80;;;;;;6228430;28;20054;-80
2022/07/07 05:50:24;;;;;;;4.43;0.80;;;19.70;78.80;;;;;;6232594;28;20533;-80
2022/07/07 05:53:26;;;;;;;4.55;0.98;;;19.90;78.00;;;;;;6231700;28;20041;-80
2022/07/07 05:56:29;;;;;;;3.38;0.95;;;21.50;73.70;;;;;;6232254;28;20069;-80
2022/07/07 05:59:31;;;;;;;2.38;0.60;;;24.10;66.10;;;;;;6228918;28;20049;-80
2022/07/07 06:02:33;;;;;;;1.52;0.57;;;27.40;54.60;;;;;;6230796;28;20064;-83
2022/07/07 06:05:35;;;;;;;8.98;1.10;;;29.00;48.60;;;;;;6231074;28;20101;-83
2022/07/07 06:08:37;;;;;;;3.30;0.68;;;29.00;45.60;;;;;;6230206;28;20053;-82
2022/07/07 06:11:40;;;;;;;4.00;1.70;;;28.10;46.90;;;;;;6230815;28;20049;-82
2022/07/07 06:14:42;;;;;;;3.25;0.60;;;28.60;46.90;;;;;;6231018;28;20053;-83
2022/07/07 06:17:45;;;;;;;7.05;0.65;;;30.80;43.20;;;;;;6229552;28;20069;-82
2022/07/07 06:20:47;;;;;;;6.22;0.90;;;31.80;39.70;;;;;;6229569;28;20050;-81
2022/07/07 06:23:49;;;;;;;2.05;0.90;;;29.90;41.60;;;;;;6231267;28;20084;-81
2022/07/07 06:26:52;;;;;;;1.95;0.55;;;27.80;44.60;;;;;;6217322;28;20128;-82
2022/07/07 06:29:55;;;;;;;5.82;0.90;;;26.20;47.70;;;;;;6214262;28;20090;-82
2022/07/07 06:32:57;;;;;;;5.85;0.80;;;25.30;50.30;;;;;;6228426;28;20057;-81
2022/07/07 06:35:58;;;;;;;0.70;0.47;;;24.80;51.60;;;;;;6185535;28;20058;-80
2022/07/07 06:39:00;;;;;;;3.22;0.60;;;25.10;51.30;;;;;;6228117;28;20515;-80
2022/07/07 06:42:03;;;;;;;3.03;0.60;;;25.00;51.10;;;;;;6211085;28;20063;-80
2022/07/07 06:45:06;;;;;;;1.95;0.60;;;24.70;51.90;;;;;;6228438;28;20057;-79
2022/07/07 06:48:09;;;;;;;4.35;0.70;;;24.50;52.20;;;;;;6224611;28;20053;-85
2022/07/07 06:51:11;;;;;;;3.95;0.82;;;24.20;53.80;;;;;;6201649;28;20070;-81
2022/07/07 06:54:12;;;;;;;5.88;0.90;;;23.70;54.30;;;;;;6202587;28;20064;-79
2022/07/07 06:57:15;;;;;;;9.88;1.48;;;23.30;55.50;;;;;;6201890;28;20049;-81
2022/07/07 07:00:18;;;;;;;4.38;0.63;;;22.80;56.70;;;;;;6184095;28;20057;-82
2022/07/07 07:03:20;;;;;;;2.08;0.52;;;22.40;58.40;;;;;;6207522;28;20124;-81
2022/07/07 07:06:21;;;;;;;3.65;0.80;;;22.00;59.50;;;;;;6207916;28;20046;-83
2022/07/07 07:09:23;;;;;;;3.28;0.63;;;21.80;60.40;;;;;;6211569;28;20046;-84
2022/07/07 07:12:26;;;;;;;5.47;0.95;;;21.50;61.50;;;;;;6204699;28;20068;-81
2022/07/07 07:15:28;;;;;;;5.10;1.02;;;21.40;62.20;;;;;;6207647;28;20054;-79
2022/07/07 07:18:29;;;;;;;1.45;0.70;;;21.20;63.00;;;;;;6212377;28;20053;-81
2022/07/07 07:21:31;;;;;;;2.70;0.93;;;21.00;63.80;;;;;;6210633;28;20050;-82
2022/07/07 07:24:33;;;;;;;2.40;0.50;;;20.90;64.40;;;;;;6204572;28;20442;-81
2022/07/07 07:27:36;;;;;;;1.67;0.73;;;20.80;64.80;;;;;;6201600;28;20046;-81
2022/07/07 07:30:38;;;;;;;3.88;1.08;;;20.80;65.30;;;;;;6202161;28;20387;-82
2022/07/07 07:33:40;;;;;;;2.63;0.70;;;20.70;65.80;;;;;;6207962;28;20057;-82
2022/07/07 07:36:41;;;;;;;3.75;0.73;;;20.80;65.90;;;;;;6205562;28;21288;-82
2022/07/07 07:39:43;;;;;;;1.10;0.70;;;21.10;66.10;;;;;;6204235;28;20050;-81
2022/07/07 07:42:50;;;;;;;2.55;0.88;;;21.20;65.90;;;;;;6199884;28;20054;-82
2022/07/07 07:45:52;;;;;;;7.47;0.83;;;21.40;65.60;;;;;;6202542;28;20551;-81
2022/07/07 07:48:55;;;;;;;3.03;1.10;;;21.60;65.60;;;;;;6204083;28;20297;-83
2022/07/07 07:51:57;;;;;;;4.43;1.00;;;21.80;65.20;;;;;;6203550;28;20512;-81
2022/07/07 07:54:59;;;;;;;4.10;1.02;;;22.00;65.00;;;;;;6203928;28;20046;-82
2022/07/07 07:58:02;;;;;;;9.95;1.02;;;22.00;64.60;;;;;;6201917;28;20364;-81
2022/07/07 08:01:07;;;;;;;4.18;0.90;;;21.90;65.00;;;;;;6203930;28;20046;-82
2022/07/07 08:04:09;;;;;;;3.80;1.13;;;21.80;66.00;;;;;;6206569;28;20043;-83
2022/07/07 08:07:11;;;;;;;2.75;1.02;;;21.50;66.80;;;;;;6216823;28;20062;-83
2022/07/07 08:10:15;;;;;;;6.47;2.13;;;21.30;67.80;;;;;;6211175;28;20061;-82
2022/07/07 08:13:18;;;;;;;2.70;1.15;;;21.10;68.50;;;;;;6209241;28;20042;-83
2022/07/07 08:16:20;;;;;;;5.18;1.58;;;20.90;69.60;;;;;;6217332;28;20088;-83
2022/07/07 08:19:21;;;;;;;6.22;1.38;;;20.80;70.40;;;;;;6212488;28;20046;-85
2022/07/07 08:22:23;;;;;;;4.07;1.10;;;20.70;71.00;;;;;;6215498;28;20070;-82
2022/07/07 08:25:25;;;;;;;4.95;0.82;;;20.70;71.70;;;;;;6222415;28;20050;-83
2022/07/07 08:28:28;;;;;;;3.65;0.82;;;20.60;72.50;;;;;;6221508;28;20073;-81
2022/07/07 08:31:31;;;;;;;9.13;1.13;;;20.60;73.10;;;;;;6205356;28;20519;-81
2022/07/07 08:34:32;;;;;;;4.30;0.98;;;20.60;73.60;;;;;;6210117;28;20034;-82
2022/07/07 08:37:34;;;;;;;5.68;1.52;;;20.70;73.50;;;;;;6227860;28;20046;-83
2022/07/07 08:40:36;;;;;;;4.47;1.40;;;20.80;73.80;;;;;;6222487;28;20065;-81
2022/07/07 08:43:39;;;;;;;6.88;1.10;;;20.80;74.90;;;;;;6215161;28;20060;-81
2022/07/07 08:46:41;;;;;;;3.97;1.00;;;20.90;74.00;;;;;;6218931;28;20093;-83
2022/07/07 08:49:43;;;;;;;3.53;1.27;;;21.00;73.80;;;;;;6217794;28;20061;-82
2022/07/07 08:52:50;;;;;;;4.55;1.30;;;21.40;72.70;;;;;;6204226;28;20057;-81
2022/07/07 08:55:52;;;;;;;6.32;0.98;;;21.80;71.50;;;;;;6215907;28;20046;-82
2022/07/07 08:58:56;;;;;;;3.13;1.15;;;22.10;70.10;;;;;;6209171;28;20062;-80
2022/07/07 09:01:59;;;;;;;5.47;0.95;;;22.50;69.40;;;;;;6209027;28;20053;-81
2022/07/07 09:05:01;;;;;;;6.30;1.02;;;23.20;67.80;;;;;;6208554;28;20061;-84
2022/07/07 09:08:02;;;;;;;3.25;1.25;;;23.80;65.70;;;;;;6202972;28;20046;-81
2022/07/07 09:11:09;;;;;;;2.22;0.88;;;24.30;63.20;;;;;;6205223;28;20512;-81
2022/07/07 09:14:14;;;;;;;10.18;1.02;;;24.60;61.70;;;;;;6215464;28;20052;-83
2022/07/07 09:17:28;;;;;;;1.98;0.52;;;24.90;61.10;;;;;;6218081;28;20152;-81
2022/07/07 09:20:35;;;;;;;3.67;1.05;;;25.90;59.10;;;;;;6220186;28;20042;-82
2022/07/07 09:23:53;;;;;;;1.83;0.97;;;26.70;55.90;;;;;;6222479;28;20523;-82
2022/07/07 09:26:55;;;;;;;4.20;1.17;;;26.60;55.30;;;;;;6211034;28;20050;-82
2022/07/07 09:29:59;;;;;;;7.80;0.80;;;26.10;55.60;;;;;;6209380;28;20491;-82
2022/07/07 09:33:03;;;;;;;2.53;0.70;;;25.70;57.30;;;;;;6213977;28;20491;-82
2022/07/07 09:39:24;;;;;;;2.03;1.15;;;25.40;58.80;;;;;;6211964;28;20042;-81
2022/07/07 09:42:27;;;;;;;2.20;1.10;;;25.90;58.20;;;;;;6204957;28;20050;-82
2022/07/07 09:45:30;;;;;;;10.05;1.48;;;26.30;56.90;;;;;;6198543;28;20050;-81
2022/07/07 09:48:32;;;;;;;2.67;1.00;;;26.40;56.60;;;;;;6198869;28;20046;-82
2022/07/07 09:51:34;;;;;;;2.80;0.93;;;26.40;56.80;;;;;;6200989;28;20046;-81
2022/07/07 09:54:46;;;;;;;8.20;1.83;;;26.50;56.10;;;;;;6198329;28;20522;-81
2022/07/07 09:57:48;;;;;;;10.20;1.25;;;26.40;55.90;;;;;;6202981;28;20042;-82
2022/07/07 10:00:51;;;;;;;3.88;0.95;;;26.50;56.70;;;;;;6198724;28;20552;-82
2022/07/07 10:03:56;;;;;;;6.63;1.25;;;26.40;55.80;;;;;;6204069;28;20045;-81
2022/07/07 10:06:59;;;;;;;4.38;1.20;;;25.90;56.30;;;;;;6197375;28;20038;-81
2022/07/07 10:10:03;;;;;;;10.50;1.08;;;25.50;57.40;;;;;;6201608;28;20042;-81
2022/07/07 10:13:05;;;;;;;7.22;1.05;;;25.60;58.30;;;;;;6200020;28;20049;-82
2022/07/07 10:16:09;;;;;;;11.57;1.05;;;25.70;58.30;;;;;;6197898;28;20397;-82
2022/07/07 10:19:12;;;;;;;3.70;0.80;;;25.80;57.80;;;;;;6203992;28;20049;-81
2022/07/07 10:22:15;;;;;;;5.78;1.48;;;25.60;58.10;;;;;;6200244;28;20054;-81
2022/07/07 10:25:17;;;;;;;7.47;0.90;;;25.40;58.80;;;;;;6197504;28;20050;-81
2022/07/07 10:28:19;;;;;;;5.65;0.88;;;25.30;59.70;;;;;;6198690;28;20046;-81
2022/07/07 10:31:23;;;;;;;2.67;0.95;;;25.40;60.00;;;;;;6199006;28;20041;-81
2022/07/07 10:34:33;;;;;;;3.40;1.08;;;25.50;59.70;;;;;;6198293;28;20098;-82
2022/07/07 10:37:42;;;;;;;7.03;1.20;;;25.40;60.10;;;;;;6201127;28;20050;-82
2022/07/07 10:40:52;;;;;;;2.40;0.68;;;25.50;60.20;;;;;;6205574;28;20054;-82
2022/07/07 10:44:05;;;;;;;3.33;0.75;;;25.50;59.90;;;;;;6209482;28;20042;-82
2022/07/07 10:47:31;;;;;;;5.47;1.10;;;25.60;60.40;;;;;;6204670;28;20412;-81
2022/07/07 10:50:34;;;;;;;9.85;1.38;;;25.80;60.40;;;;;;6199887;28;20510;-81
2022/07/07 10:53:36;;;;;;;8.68;1.40;;;25.90;59.90;;;;;;6203790;28;20081;-81
2022/07/07 10:57:11;;;;;;;4.80;0.80;;;26.00;59.40;;;;;;6200095;28;20046;-81
2022/07/07 11:00:19;;;;;;;3.67;1.58;;;25.90;59.70;;;;;;6202235;28;20062;-82
2022/07/07 11:03:23;;;;;;;8.15;1.33;;;25.80;60.00;;;;;;6204030;28;20049;-81
2022/07/07 11:06:25;;;;;;;5.25;0.70;;;25.60;60.50;;;;;;6201237;28;20062;-82
2022/07/07 11:09:59;;;;;;;3.53;0.77;;;25.50;60.90;;;;;;6196234;28;20042;-82
2022/07/07 11:13:14;;;;;;;1.65;0.70;;;25.30;61.60;;;;;;6202527;28;20562;-82
2022/07/07 11:16:19;;;;;;;2.13;0.63;;;25.50;61.60;;;;;;6203289;28;20141;-82
2022/07/07 11:19:22;;;;;;;10.57;1.20;;;25.60;61.20;;;;;;6206272;28;20041;-82
2022/07/07 11:22:24;;;;;;;2.78;0.82;;;25.70;60.80;;;;;;6202612;28;20057;-82
2022/07/07 11:25:27;;;;;;;5.00;1.33;;;25.60;60.50;;;;;;6201353;28;20150;-82
2022/07/07 11:28:28;;;;;;;5.80;1.05;;;25.60;60.60;;;;;;6200850;28;20133;-81
2022/07/07 11:31:30;;;;;;;4.45;0.70;;;25.80;61.10;;;;;;6201903;28;20062;-81
2022/07/07 11:34:49;;;;;;;1.20;0.90;;;26.10;60.60;;;;;;6192351;28;20058;-81
2022/07/07 11:37:51;;;;;;;;;;;26.40;60.00;;;;;;6200748;28;20428;-82
2022/07/07 11:40:53;;;;;;;5.80;0.57;;;26.50;59.20;;;;;;6205459;28;19922;-82
2022/07/07 11:43:56;;;;;;;9.02;1.00;;;26.70;58.30;;;;;;6206667;28;20042;-81
2022/07/07 11:46:57;;;;;;;3.75;1.27;;;26.70;57.40;;;;;;6212241;28;20654;-81
2022/07/07 11:50:00;;;;;;;4.93;1.20;;;26.80;57.90;;;;;;6206679;28;20523;-82
2022/07/07 11:53:04;;;;;;;4.43;1.10;;;27.10;57.50;;;;;;6215169;28;20122;-82
2022/07/07 11:56:07;;;;;;;2.90;0.77;;;27.30;57.30;;;;;;6209044;28;20050;-82
2022/07/07 11:59:09;;;;;;;2.92;1.65;;;27.40;56.30;;;;;;6204163;28;20046;-82
2022/07/07 12:02:18;;;;;;;7.38;0.82;;;27.30;56.90;;;;;;6201383;28;20054;-81
2022/07/07 12:05:23;;;;;;;6.72;0.77;;;27.30;57.00;;;;;;6212884;28;20050;-81
2022/07/07 12:08:34;;;;;;;12.05;0.90;;;27.30;56.60;;;;;;6209108;28;20090;-81
2022/07/07 12:11:37;;;;;;;7.82;0.98;;;27.40;56.40;;;;;;6213409;28;20582;-81
2022/07/07 12:14:42;;;;;;;2.90;0.90;;;27.50;56.00;;;;;;6209337;28;20500;-81
2022/07/07 12:17:45;;;;;;;0.95;0.57;;;27.60;56.40;;;;;;6211101;28;20054;-80
2022/07/07 12:20:57;;;;;;;3.58;0.85;;;27.60;55.70;;;;;;6210937;28;20047;-81
2022/07/07 12:24:03;;;;;;;6.88;1.25;;;27.60;56.00;;;;;;6206945;28;20049;-81
2022/07/07 12:27:15;;;;;;;7.05;1.17;;;27.40;56.00;;;;;;6205793;28;20034;-81
2022/07/07 12:30:17;;;;;;;5.78;0.93;;;27.40;56.00;;;;;;6204720;28;20042;-80
2022/07/07 12:33:25;;;;;;;5.70;0.80;;;27.60;56.00;;;;;;6201519;28;20045;-81
2022/07/07 12:36:29;;;;;;;12.52;1.85;;;27.90;55.20;;;;;;6198778;28;20052;-81
2022/07/07 12:39:34;;;;;;;3.03;0.80;;;28.00;55.10;;;;;;6198743;28;20050;-81
2022/07/07 12:42:35;;;;;;;8.55;1.40;;;27.70;55.20;;;;;;6200762;28;20523;-82
2022/07/07 12:45:42;;;;;;;3.90;1.17;;;27.50;55.40;;;;;;6207611;28;20045;-82
2022/07/07 12:48:50;;;;;;;1.35;0.98;;;27.30;56.00;;;;;;6199901;28;20050;-81
2022/07/07 12:51:55;;;;;;;2.58;0.50;;;26.90;56.60;;;;;;6205287;28;20049;-82
2022/07/07 12:55:08;;;;;;;4.80;0.50;;;26.60;57.40;;;;;;6207861;28;20074;-81
2022/07/07 12:58:23;;;;;;;8.20;1.08;;;26.40;58.60;;;;;;6192627;28;20046;-80
2022/07/07 13:01:27;;;;;;;9.88;1.00;;;26.40;58.90;;;;;;6204549;28;20058;-81
2022/07/07 13:04:29;;;;;;;5.00;0.88;;;26.40;59.00;;;;;;6200314;28;20046;-81
2022/07/07 13:07:33;;;;;;;5.13;0.80;;;26.30;58.90;;;;;;6207078;28;20046;-81
2022/07/07 13:10:34;;;;;;;2.28;0.52;;;26.30;59.00;;;;;;6200958;28;20046;-81
2022/07/07 13:13:36;;;;;;;1.75;0.60;;;26.40;59.00;;;;;;6202261;28;20057;-81
2022/07/07 13:16:38;;;;;;;2.83;0.70;;;26.60;58.70;;;;;;6199975;28;20128;-81
2022/07/07 13:19:39;;;;;;;2.65;0.60;;;26.80;58.90;;;;;;6198937;28;20048;-82
2022/07/07 13:22:43;;;;;;;10.15;0.98;;;27.30;57.90;;;;;;6204304;28;20064;-82
2022/07/07 13:25:44;;;;;;;7.00;0.98;;;27.70;56.50;;;;;;6202203;28;20058;-81
2022/07/07 13:28:46;;;;;;;1.75;0.60;;;28.00;56.10;;;;;;6205207;28;20061;-82
2022/07/07 13:31:48;;;;;;;1.08;0.60;;;28.10;55.60;;;;;;6199184;28;20038;-81
2022/07/07 13:34:50;;;;;;;1.92;0.55;;;28.20;55.10;;;;;;6200702;28;20050;-81
2022/07/07 13:37:55;;;;;;;4.97;0.60;;;28.00;55.60;;;;;;6199844;28;20042;-83
2022/07/07 13:40:57;;;;;;;2.30;0.50;;;28.00;55.90;;;;;;6197694;28;20034;-82
2022/07/07 13:43:59;;;;;;;4.35;1.08;;;28.00;55.80;;;;;;6199174;28;20043;-81
2022/07/07 13:47:01;;;;;;;1.75;0.68;;;28.00;56.00;;;;;;6201251;28;20531;-81
2022/07/07 13:50:03;;;;;;;0.77;0.60;;;28.10;56.30;;;;;;6200236;28;20056;-81
2022/07/07 13:53:06;;;;;;;1.05;0.32;;;28.20;56.10;;;;;;6201404;28;20189;-82
2022/07/07 13:56:08;;;;;;;1.92;0.50;;;28.50;54.80;;;;;;6200742;28;20042;-82
2022/07/07 13:59:10;;;;;;;0.73;0.20;;;28.80;52.80;;;;;;6197698;28;20121;-82
2022/07/07 14:02:12;;;;;;;0.73;0.30;;;29.30;52.00;;;;;;6201188;28;20056;-82
2022/07/07 14:05:18;;;;;;;0.32;0.13;;;29.70;51.40;;;;;;6197381;28;20859;-82
2022/07/07 14:08:21;;;;;;;2.22;0.30;;;29.80;51.00;;;;;;6200718;28;20039;-82
2022/07/07 14:11:22;;;;;;;7.25;0.50;;;29.80;51.00;;;;;;6198475;28;20053;-82
2022/07/07 14:14:24;;;;;;;3.60;0.20;;;29.50;50.60;;;;;;6201128;28;20500;-82
2022/07/07 14:17:27;;;;;;;0.98;0.30;;;29.10;51.00;;;;;;6197514;28;20061;-82
2022/07/07 14:20:29;;;;;;;2.88;0.40;;;28.70;52.10;;;;;;6198673;28;20053;-82
2022/07/07 14:23:32;;;;;;;1.60;0.32;;;28.30;52.10;;;;;;6198479;28;20077;-82
2022/07/07 14:26:34;;;;;;;1.33;0.22;;;27.80;52.10;;;;;;6197334;28;20050;-82
2022/07/07 14:29:35;;;;;;;1.35;0.30;;;27.60;52.40;;;;;;6196511;28;20065;-81
2022/07/07 14:32:37;;;;;;;0.52;0.22;;;27.50;52.50;;;;;;6200925;28;20050;-82
2022/07/07 14:35:39;;;;;;;0.22;0.10;;;27.20;53.10;;;;;;6202862;28;20053;-82
2022/07/07 14:38:42;;;;;;;0.68;0.20;;;26.80;53.80;;;;;;6200414;28;20042;-81
2022/07/07 14:41:44;;;;;;;0.25;0.20;;;26.60;54.50;;;;;;6206291;28;20057;-81
2022/07/07 14:44:45;;;;;;;0.77;0.30;;;26.60;55.10;;;;;;6198638;28;20050;-81
2022/07/07 14:47:47;;;;;;;0.68;0.20;;;26.60;55.40;;;;;;6209438;28;20046;-81
2022/07/07 14:50:49;;;;;;;1.00;0.38;;;26.60;55.40;;;;;;6206880;28;20045;-81
2022/07/07 14:53:52;;;;;;;0.50;0.28;;;26.90;55.20;;;;;;6206669;28;20050;-82
2022/07/07 14:56:54;;;;;;;1.73;0.15;;;27.20;54.60;;;;;;6208834;28;20474;-81
2022/07/07 14:59:55;;;;;;;1.33;0.20;;;27.40;53.90;;;;;;6208314;28;20069;-83
2022/07/07 15:02:57;;;;;;;1.33;0.40;;;27.70;52.60;;;;;;6202162;28;20109;-83
2022/07/07 15:05:59;;;;;;;2.75;0.40;;;27.80;50.90;;;;;;6211028;28;20046;-83
2022/07/07 15:09:03;;;;;;;2.90;0.22;;;27.80;50.10;;;;;;6200075;28;20042;-83
2022/07/07 15:12:05;;;;;;;1.40;0.20;;;27.90;50.00;;;;;;6207297;28;20053;-82
2022/07/07 15:15:08;;;;;;;0.82;0.30;;;28.10;49.50;;;;;;6199513;28;20048;-82
2022/07/07 15:18:10;;;;;;;0.50;0.20;;;28.30;49.00;;;;;;6200666;28;20050;-82
2022/07/07 15:21:12;;;;;;;0.32;0.10;;;28.40;48.10;;;;;;6201574;28;20046;-82
2022/07/07 15:24:15;;;;;;;2.00;0.65;;;28.40;47.90;;;;;;6201788;28;20050;-82
2022/07/07 15:27:16;;;;;;;0.70;0.15;;;28.60;48.00;;;;;;6199771;28;20085;-82
2022/07/07 15:30:18;;;;;;;0.00;0.00;;;28.60;46.70;;;;;;6201324;28;20057;-82
2022/07/07 15:33:20;;;;;;;0.30;0.17;;;28.50;46.20;;;;;;6205025;28;20042;-81
2022/07/07 15:36:23;;;;;;;0.95;0.22;;;28.30;46.80;;;;;;6207453;28;20044;-82
2022/07/07 15:39:26;;;;;;;1.98;0.50;;;28.10;46.50;;;;;;6208243;28;20408;-80
2022/07/07 15:42:27;;;;;;;1.10;0.28;;;27.90;47.70;;;;;;6207388;28;20057;-82
2022/07/07 15:45:29;;;;;;;3.45;0.55;;;27.80;47.60;;;;;;6204212;28;20046;-81
2022/07/07 15:48:31;;;;;;;1.90;0.43;;;27.80;48.00;;;;;;6207044;28;20061;-80
2022/07/07 15:51:33;;;;;;;2.17;0.25;;;27.70;47.80;;;;;;6201854;28;20050;-81
2022/07/07 15:54:36;;;;;;;0.50;0.22;;;27.70;47.60;;;;;;6203331;28;20405;-81
2022/07/07 15:57:38;;;;;;;0.10;0.10;;;27.70;47.30;;;;;;6205189;28;20045;-81